createdAt,value
2019-06-27T00:00:53.269Z,20.10
2019-06-27T00:03:24.671Z,22.17
2019-06-27T00:05:57.137Z,18.57
2019-06-27T00:08:28.612Z,18.37
2019-06-27T00:11:00.111Z,25.08
2019-06-27T00:13:32.120Z,20.60
2019-06-27T00:16:03.438Z,22.55
2019-06-27T00:18:34.923Z,24.55
2019-06-27T00:21:07.466Z,22.73
2019-06-27T00:23:38.894Z,22.75
2019-06-27T00:26:10.771Z,22.42
2019-06-27T00:28:42.363Z,19.05
2019-06-27T00:31:13.816Z,19.52
2019-06-27T00:33:45.401Z,19.52
2019-06-27T00:36:16.697Z,19.57
2019-06-27T00:38:47.948Z,17.92
2019-06-27T00:41:19.445Z,21.70
2019-06-27T00:43:51.370Z,17.65
2019-06-27T00:46:22.786Z,18.20
2019-06-27T00:48:54.110Z,18.57
2019-06-27T00:51:25.383Z,15.63
2019-06-27T00:53:57.196Z,24.20
2019-06-27T00:56:28.909Z,20.20
2019-06-27T00:59:00.196Z,22.82
2019-06-27T01:01:32.680Z,19.90
2019-06-27T01:04:04.069Z,18.98
2019-06-27T01:06:35.559Z,18.92
2019-06-27T01:09:08.462Z,16.50
2019-06-27T01:11:39.845Z,17.15
2019-06-27T01:14:11.461Z,20.52
2019-06-27T01:16:42.797Z,19.07
2019-06-27T01:19:14.548Z,19.80
2019-06-27T01:21:45.921Z,22.80
2019-06-27T01:24:17.255Z,19.15
2019-06-27T01:26:48.851Z,18.40
2019-06-27T01:29:20.241Z,17.20
2019-06-27T01:31:51.628Z,18.57
2019-06-27T01:34:23.079Z,16.77
2019-06-27T01:36:54.521Z,22.90
2019-06-27T01:39:26.229Z,19.12
2019-06-27T01:41:57.672Z,18.90
2019-06-27T01:44:49.505Z,22.45
2019-06-27T01:47:20.850Z,17.52
2019-06-27T01:49:52.203Z,17.85
2019-06-27T01:52:23.656Z,20.20
2019-06-27T01:54:55.107Z,20.55
2019-06-27T01:57:26.500Z,19.20
2019-06-27T01:59:58.009Z,18.98
2019-06-27T02:02:29.475Z,17.25
2019-06-27T02:05:00.906Z,18.30
2019-06-27T02:07:32.669Z,21.30
2019-06-27T02:10:04.949Z,19.35
2019-06-27T02:12:36.590Z,19.92
2019-06-27T02:15:08.779Z,24.20
2019-06-27T02:17:40.277Z,20.62
2019-06-27T02:20:12.674Z,20.90
2019-06-27T02:22:44.134Z,24.57
2019-06-27T02:25:17.666Z,21.57
2019-06-27T02:28:02.595Z,25.17
2019-06-27T02:30:37.105Z,24.07
2019-06-27T02:33:08.661Z,22.70
2019-06-27T02:35:40.466Z,23.87
2019-06-27T02:38:11.946Z,27.62
2019-06-27T02:40:43.413Z,24.40
2019-06-27T02:43:14.818Z,24.00
2019-06-27T02:45:46.608Z,23.62
2019-06-27T02:48:18.245Z,20.08
2019-06-27T02:50:49.751Z,18.73
2019-06-27T02:53:21.162Z,18.75
2019-06-27T02:55:52.656Z,18.90
2019-06-27T02:58:30.942Z,17.95
2019-06-27T03:00:58.946Z,18.00
2019-06-27T03:03:30.362Z,19.50
2019-06-27T03:06:02.122Z,22.10
2019-06-27T03:08:33.685Z,18.27
2019-06-27T03:11:05.439Z,20.85
2019-06-27T03:13:36.960Z,22.87
2019-06-27T03:16:08.459Z,20.35
2019-06-27T03:18:39.796Z,23.80
2019-06-27T03:21:11.271Z,19.50
2019-06-27T03:23:42.705Z,19.43
2019-06-27T03:26:14.322Z,20.10
2019-06-27T03:28:52.680Z,22.10
2019-06-27T03:31:19.651Z,17.40
2019-06-27T03:33:51.144Z,20.45
2019-06-27T03:36:23.905Z,19.35
2019-06-27T03:38:55.486Z,21.85
2019-06-27T03:41:26.936Z,22.02
2019-06-27T03:43:58.515Z,19.25
2019-06-27T03:46:29.876Z,21.73
2019-06-27T03:49:01.292Z,20.88
2019-06-27T03:51:32.886Z,19.90
2019-06-27T03:54:04.375Z,18.65
2019-06-27T03:56:35.933Z,20.85
2019-06-27T03:59:12.776Z,18.70
2019-06-27T04:01:40.952Z,20.82
2019-06-27T04:04:12.361Z,19.20
2019-06-27T04:06:44.222Z,21.07
2019-06-27T04:09:17.528Z,19.30
2019-06-27T04:11:49.044Z,15.43
2019-06-27T04:14:20.478Z,18.77
2019-06-27T04:16:51.905Z,23.22
2019-06-27T04:19:24.478Z,21.52
2019-06-27T04:21:56.165Z,18.98
2019-06-27T04:24:27.663Z,18.90
2019-06-27T04:26:59.213Z,19.92
2019-06-27T04:29:33.896Z,20.95
2019-06-27T04:32:03.926Z,17.55
2019-06-27T04:34:35.699Z,18.55
2019-06-27T04:37:13.566Z,19.92
2019-06-27T04:39:44.949Z,21.17
2019-06-27T04:42:16.491Z,21.97
2019-06-27T04:44:47.911Z,23.47
2019-06-27T04:47:19.502Z,22.13
2019-06-27T04:49:52.125Z,20.45
2019-06-27T04:52:23.894Z,23.47
2019-06-27T04:54:55.598Z,21.68
2019-06-27T04:57:27.026Z,19.70
2019-06-27T04:59:58.362Z,17.45
2019-06-27T05:02:31.034Z,19.37
2019-06-27T05:05:02.859Z,17.87
2019-06-27T05:07:34.390Z,16.82
2019-06-27T05:10:06.425Z,19.67
2019-06-27T05:12:37.869Z,19.95
2019-06-27T05:15:09.674Z,23.92
2019-06-27T05:17:41.081Z,18.55
2019-06-27T05:20:12.881Z,18.52
2019-06-27T05:22:44.176Z,21.10
2019-06-27T05:25:15.974Z,19.07
2019-06-27T05:27:47.500Z,17.20
2019-06-27T05:30:18.991Z,16.37
2019-06-27T05:32:50.353Z,20.30
2019-06-27T05:35:21.851Z,16.55
2019-06-27T05:37:53.272Z,17.30
2019-06-27T05:40:24.750Z,19.73
2019-06-27T05:42:56.290Z,19.73
2019-06-27T05:45:28.176Z,20.32
2019-06-27T05:47:59.699Z,17.77
2019-06-27T05:50:31.192Z,14.85
2019-06-27T05:53:02.500Z,19.35
2019-06-27T05:55:34.296Z,23.77
2019-06-27T05:58:05.851Z,23.25
2019-06-27T06:00:37.331Z,16.35
2019-06-27T06:03:08.765Z,17.15
2019-06-27T06:05:40.428Z,15.85
2019-06-27T06:08:11.887Z,18.23
2019-06-27T06:10:43.293Z,16.07
2019-06-27T06:13:14.767Z,23.50
2019-06-27T06:15:46.512Z,17.77
2019-06-27T06:18:17.990Z,17.92
2019-06-27T06:20:49.401Z,17.30
2019-06-27T06:23:20.838Z,14.95
2019-06-27T06:25:52.178Z,15.53
2019-06-27T06:28:23.533Z,15.98
2019-06-27T06:30:54.938Z,16.50
2019-06-27T06:33:26.594Z,18.20
2019-06-27T06:35:58.079Z,19.92
2019-06-27T06:38:29.615Z,16.00
2019-06-27T06:41:03.841Z,21.95
2019-06-27T06:43:35.387Z,16.70
2019-06-27T06:46:07.261Z,17.40
2019-06-27T06:48:38.794Z,20.97
2019-06-27T06:51:10.319Z,21.00
2019-06-27T06:53:41.701Z,22.13
2019-06-27T06:56:13.226Z,17.17
2019-06-27T06:58:44.686Z,15.72
2019-06-27T07:01:16.527Z,17.98
2019-06-27T07:03:47.939Z,15.72
2019-06-27T07:06:19.517Z,16.90
2019-06-27T07:08:51.335Z,15.83
2019-06-27T07:11:23.105Z,19.42
2019-06-27T07:13:54.660Z,15.30
2019-06-27T07:16:26.139Z,16.42
2019-06-27T07:18:57.655Z,16.93
2019-06-27T07:21:29.074Z,17.50
2019-06-27T07:24:01.203Z,15.25
2019-06-27T07:26:32.632Z,17.25
2019-06-27T07:29:04.135Z,15.78
2019-06-27T07:31:35.608Z,17.70
2019-06-27T07:34:07.054Z,14.60
2019-06-27T07:36:38.603Z,14.87
2019-06-27T07:39:10.125Z,16.82
2019-06-27T07:41:41.594Z,19.17
2019-06-27T07:44:14.005Z,14.50
2019-06-27T07:46:45.411Z,15.48
2019-06-27T07:49:17.032Z,19.37
2019-06-27T07:51:48.352Z,14.55
2019-06-27T07:54:19.814Z,21.17
2019-06-27T07:56:51.198Z,18.75
2019-06-27T07:59:22.590Z,20.88
2019-06-27T08:01:53.987Z,17.15
2019-06-27T08:04:25.457Z,14.33
2019-06-27T08:06:56.889Z,14.93
2019-06-27T08:09:28.171Z,19.32
2019-06-27T08:11:59.928Z,14.18
2019-06-27T08:14:31.412Z,19.60
2019-06-27T08:17:02.934Z,13.25
2019-06-27T08:19:34.318Z,15.25
2019-06-27T08:22:06.114Z,14.55
2019-06-27T08:24:37.599Z,16.20
2019-06-27T08:27:09.125Z,14.38
2019-06-27T08:29:40.563Z,14.13
2019-06-27T08:32:11.864Z,13.55
2019-06-27T08:34:43.374Z,15.18
2019-06-27T08:37:15.241Z,18.42
2019-06-27T08:39:46.779Z,13.58
2019-06-27T08:42:18.040Z,16.55
2019-06-27T08:44:49.584Z,14.25
2019-06-27T08:47:21.235Z,14.10
2019-06-27T08:49:52.777Z,16.40
2019-06-27T08:52:24.111Z,13.80
2019-06-27T08:54:55.454Z,13.35
2019-06-27T08:57:26.789Z,13.98
2019-06-27T08:59:58.213Z,14.10
2019-06-27T09:02:30.133Z,14.63
2019-06-27T09:05:01.717Z,16.80
2019-06-27T09:07:33.615Z,16.50
2019-06-27T09:10:05.311Z,13.28
2019-06-27T09:12:36.807Z,13.85
2019-06-27T09:15:09.130Z,17.80
2019-06-27T09:17:40.533Z,14.98
2019-06-27T09:20:12.794Z,14.18
2019-06-27T09:22:44.571Z,14.87
2019-06-27T09:25:16.318Z,15.48
2019-06-27T09:27:48.198Z,16.20
2019-06-27T09:30:20.614Z,16.90
2019-06-27T09:32:52.127Z,17.30
2019-06-27T09:35:23.729Z,15.70
2019-06-27T09:37:55.217Z,16.67
2019-06-27T09:40:27.036Z,15.08
2019-06-27T09:42:58.533Z,17.73
2019-06-27T09:45:30.127Z,17.67
2019-06-27T09:48:01.631Z,19.62
2019-06-27T09:50:33.127Z,16.95
2019-06-27T09:53:04.946Z,15.63
2019-06-27T09:55:36.475Z,14.63
2019-06-27T09:58:08.046Z,15.25
2019-06-27T10:00:39.792Z,14.95
2019-06-27T10:03:11.537Z,19.07
2019-06-27T10:05:43.067Z,14.33
2019-06-27T10:08:14.485Z,12.90
2019-06-27T10:10:45.961Z,15.55
2019-06-27T10:13:17.450Z,16.75
2019-06-27T10:15:48.801Z,16.42
2019-06-27T10:18:20.620Z,15.75
2019-06-27T10:20:52.109Z,14.55
2019-06-27T10:23:23.566Z,15.70
2019-06-27T10:25:55.113Z,14.93
2019-06-27T10:28:26.882Z,12.78
2019-06-27T10:31:00.373Z,14.73
2019-06-27T10:33:31.649Z,15.80
2019-06-27T10:36:03.094Z,16.75
2019-06-27T10:38:34.612Z,15.63
2019-06-27T10:41:06.117Z,14.45
2019-06-27T10:43:38.082Z,13.68
2019-06-27T10:46:09.761Z,12.40
2019-06-27T10:48:41.542Z,13.88
2019-06-27T10:51:13.025Z,15.15
2019-06-27T10:53:44.761Z,14.80
2019-06-27T10:56:16.171Z,14.33
2019-06-27T10:58:47.517Z,17.30
2019-06-27T11:01:18.949Z,22.77
2019-06-27T11:03:50.468Z,17.07
2019-06-27T11:06:21.891Z,14.93
2019-06-27T11:08:53.404Z,14.28
2019-06-27T11:11:25.886Z,16.80
2019-06-27T11:13:59.146Z,12.73
2019-06-27T11:16:30.323Z,15.35
2019-06-27T11:19:01.901Z,13.38
2019-06-27T11:21:34.392Z,14.60
2019-06-27T11:24:06.168Z,12.75
2019-06-27T11:26:37.514Z,16.85
2019-06-27T11:29:08.950Z,18.73
2019-06-27T11:31:40.561Z,17.23
2019-06-27T11:34:12.238Z,15.32
2019-06-27T11:36:46.542Z,15.48
2019-06-27T11:39:17.051Z,13.45
2019-06-27T11:41:48.543Z,12.40
2019-06-27T11:44:19.980Z,17.65
2019-06-27T11:46:51.547Z,13.00
2019-06-27T11:49:23.137Z,16.45
2019-06-27T11:51:54.662Z,12.98
2019-06-27T11:54:26.022Z,13.58
2019-06-27T11:56:57.504Z,13.13
2019-06-27T11:59:28.867Z,10.88
2019-06-27T12:02:00.407Z,15.70
2019-06-27T12:04:31.835Z,14.33
2019-06-27T12:07:03.312Z,15.90
2019-06-27T12:09:34.795Z,14.43
2019-06-27T12:12:06.378Z,13.22
2019-06-27T12:14:37.788Z,13.80
2019-06-27T12:17:10.367Z,15.75
2019-06-27T12:19:42.339Z,14.23
2019-06-27T12:22:14.100Z,11.68
2019-06-27T12:24:45.581Z,16.15
2019-06-27T12:27:17.066Z,12.60
2019-06-27T12:29:48.519Z,16.48
2019-06-27T12:32:20.056Z,14.58
2019-06-27T12:34:51.844Z,13.95
2019-06-27T12:37:23.375Z,17.92
2019-06-27T12:39:54.795Z,13.95
2019-06-27T12:42:32.304Z,11.75
2019-06-27T12:44:59.832Z,12.95
2019-06-27T12:47:31.320Z,12.70
2019-06-27T12:50:03.477Z,11.40
2019-06-27T12:52:35.434Z,11.88
2019-06-27T12:55:07.350Z,13.32
2019-06-27T12:57:38.968Z,15.30
2019-06-27T13:00:11.857Z,13.48
2019-06-27T13:02:43.365Z,12.95
2019-06-27T13:05:14.960Z,16.50
2019-06-27T13:07:46.355Z,12.43
2019-06-27T13:10:18.232Z,14.98
2019-06-27T13:12:50.016Z,13.32
2019-06-27T13:15:21.588Z,12.68
2019-06-27T13:17:53.121Z,13.98
2019-06-27T13:20:24.886Z,17.35
2019-06-27T13:22:56.285Z,15.18
2019-06-27T13:25:27.860Z,15.88
2019-06-27T13:27:59.657Z,13.35
2019-06-27T13:30:31.169Z,12.73
2019-06-27T13:33:03.084Z,14.15
2019-06-27T13:35:35.022Z,13.38
2019-06-27T13:38:06.501Z,17.12
2019-06-27T13:40:38.016Z,14.90
2019-06-27T13:43:09.484Z,12.63
2019-06-27T13:45:40.991Z,13.90
2019-06-27T13:48:12.469Z,13.05
2019-06-27T13:50:44.022Z,13.22
2019-06-27T13:53:15.981Z,12.20
2019-06-27T13:55:47.463Z,13.43
2019-06-27T13:58:19.203Z,16.73
2019-06-27T14:00:50.822Z,14.35
2019-06-27T14:03:22.434Z,13.22
2019-06-27T14:05:53.962Z,12.93
2019-06-27T14:08:26.406Z,13.30
2019-06-27T14:10:57.898Z,12.58
2019-06-27T14:13:29.195Z,14.93
2019-06-27T14:16:00.664Z,15.25
2019-06-27T14:18:32.055Z,11.18
2019-06-27T14:21:03.752Z,13.32
2019-06-27T14:23:35.157Z,14.13
2019-06-27T14:26:06.710Z,14.47
2019-06-27T14:28:38.525Z,15.65
2019-06-27T14:31:10.022Z,12.20
2019-06-27T14:33:41.423Z,11.80
2019-06-27T14:36:12.898Z,12.68
2019-06-27T14:38:44.226Z,13.03
2019-06-27T14:41:15.779Z,15.43
2019-06-27T14:43:47.208Z,13.28
2019-06-27T14:46:18.641Z,13.10
2019-06-27T14:48:50.067Z,10.38
2019-06-27T14:51:21.558Z,9.45
2019-06-27T14:53:53.018Z,10.00
2019-06-27T14:56:24.406Z,9.40
2019-06-27T14:58:55.874Z,11.08
2019-06-27T15:01:27.287Z,12.43
2019-06-27T15:03:58.697Z,11.30
2019-06-27T15:06:30.286Z,8.50
2019-06-27T15:09:02.727Z,10.95
2019-06-27T15:11:35.349Z,11.18
2019-06-27T15:14:06.833Z,10.63
2019-06-27T15:16:38.245Z,10.55
2019-06-27T15:19:09.646Z,16.20
2019-06-27T15:21:41.055Z,11.22
2019-06-27T15:24:12.611Z,8.83
2019-06-27T15:26:43.985Z,9.45
2019-06-27T15:29:15.358Z,8.65
2019-06-27T15:31:46.884Z,8.50
2019-06-27T15:34:18.344Z,7.90
2019-06-27T15:36:49.852Z,6.08
2019-06-27T15:39:21.404Z,6.60
2019-06-27T15:41:52.738Z,7.83
2019-06-27T15:44:24.232Z,8.33
2019-06-27T15:46:56.047Z,4.90
2019-06-27T15:49:30.132Z,8.48
2019-06-27T15:52:01.173Z,6.47
2019-06-27T15:54:32.831Z,6.83
2019-06-27T15:57:04.248Z,6.40
2019-06-27T15:59:35.742Z,5.75
2019-06-27T16:02:07.604Z,7.75
2019-06-27T16:04:38.978Z,5.42
2019-06-27T16:07:10.369Z,6.08
2019-06-27T16:09:41.819Z,6.35
2019-06-27T16:12:13.403Z,3.62
2019-06-27T16:14:44.903Z,3.62
2019-06-27T16:17:16.386Z,4.40
2019-06-27T16:19:47.872Z,3.95
2019-06-27T16:22:19.274Z,3.55
2019-06-27T16:24:50.789Z,3.05
2019-06-27T16:27:22.261Z,2.17
2019-06-27T16:29:53.635Z,2.52
2019-06-27T16:32:25.117Z,2.52
2019-06-27T16:34:56.556Z,3.55
2019-06-27T16:37:28.035Z,4.50
2019-06-27T16:39:59.468Z,3.92
2019-06-27T16:42:31.073Z,2.10
2019-06-27T16:45:03.481Z,2.98
2019-06-27T16:47:35.133Z,4.30
2019-06-27T16:50:07.487Z,1.55
2019-06-27T16:52:38.912Z,2.40
2019-06-27T16:55:11.307Z,2.50
2019-06-27T16:57:42.808Z,1.55
2019-06-27T17:00:15.597Z,1.55
2019-06-27T17:02:47.150Z,4.65
2019-06-27T17:05:18.614Z,2.02
2019-06-27T17:07:50.165Z,2.22
2019-06-27T17:10:21.759Z,2.55
2019-06-27T17:12:53.444Z,3.52
2019-06-27T17:15:25.132Z,1.98
2019-06-27T17:17:56.927Z,1.37
2019-06-27T17:20:28.406Z,2.37
2019-06-27T17:22:59.906Z,2.00
2019-06-27T17:25:31.469Z,1.47
2019-06-27T17:28:02.958Z,3.00
2019-06-27T17:30:34.375Z,1.77
2019-06-27T17:33:05.851Z,1.25
2019-06-27T17:35:37.266Z,2.22
2019-06-27T17:38:08.601Z,0.90
2019-06-27T17:40:40.126Z,3.45
2019-06-27T17:43:11.617Z,1.55
2019-06-27T17:45:44.110Z,1.10
2019-06-27T17:48:15.648Z,1.40
2019-06-27T17:50:47.300Z,1.12
2019-06-27T17:53:18.806Z,1.47
2019-06-27T17:55:50.140Z,1.17
2019-06-27T17:58:21.731Z,1.25
2019-06-27T18:00:53.258Z,2.08
2019-06-27T18:03:24.558Z,1.10
2019-06-27T18:05:56.156Z,1.10
2019-06-27T18:08:27.886Z,2.55
2019-06-27T18:10:59.361Z,1.25
2019-06-27T18:13:30.702Z,1.72
2019-06-27T18:16:02.117Z,2.87
2019-06-27T18:18:33.390Z,1.30
2019-06-27T18:21:05.046Z,1.05
2019-06-27T18:23:36.417Z,1.52
2019-06-27T18:26:07.915Z,2.05
2019-06-27T18:28:39.439Z,0.90
2019-06-27T18:31:10.917Z,1.15
2019-06-27T18:33:42.165Z,0.95
2019-06-27T18:36:13.618Z,1.50
2019-06-27T18:38:45.005Z,3.58
2019-06-27T18:41:16.505Z,1.72
2019-06-27T18:43:48.334Z,2.62
2019-06-27T18:46:19.857Z,0.80
2019-06-27T18:48:52.135Z,2.02
2019-06-27T18:51:24.164Z,2.95
2019-06-27T18:53:55.647Z,2.45
2019-06-27T18:56:27.120Z,1.60
2019-06-27T18:58:58.913Z,1.87
2019-06-27T19:01:30.357Z,2.05
2019-06-27T19:04:02.168Z,1.87
2019-06-27T19:06:33.644Z,2.08
2019-06-27T19:09:05.979Z,3.08
2019-06-27T19:11:38.225Z,4.42
2019-06-27T19:14:09.714Z,6.90
2019-06-27T19:16:41.119Z,6.70
2019-06-27T19:19:15.190Z,4.00
2019-06-27T19:22:24.639Z,2.60
2019-06-27T19:25:09.885Z,9.23
2019-06-27T19:27:42.444Z,9.20
2019-06-27T19:30:13.853Z,5.25
2019-06-27T19:32:45.413Z,2.80
2019-06-27T19:35:16.824Z,1.87
2019-06-27T19:38:01.358Z,1.80
2019-06-27T19:40:41.447Z,1.47
2019-06-27T19:43:26.600Z,2.15
2019-06-27T19:45:46.339Z,1.35
2019-06-27T19:48:21.257Z,1.50
2019-06-27T19:50:51.706Z,1.45
2019-06-27T19:53:23.134Z,2.95
2019-06-27T19:55:55.362Z,2.58
2019-06-27T19:58:27.369Z,1.20
2019-06-27T20:00:59.870Z,3.10
2019-06-27T20:03:31.254Z,1.95
2019-06-27T20:06:02.978Z,1.95
2019-06-27T20:08:34.463Z,1.50
2019-06-27T20:11:05.952Z,1.62
2019-06-27T20:13:38.548Z,1.40
2019-06-27T20:16:10.176Z,3.10
2019-06-27T20:18:41.675Z,2.20
2019-06-27T20:21:13.615Z,6.53
2019-06-27T20:23:45.083Z,2.35
2019-06-27T20:26:16.550Z,1.60
2019-06-27T20:28:49.016Z,3.17
2019-06-27T20:31:20.929Z,2.27
2019-06-27T20:33:53.686Z,3.95
2019-06-27T20:36:25.200Z,1.35
2019-06-27T20:38:56.690Z,1.85
2019-06-27T20:41:29.432Z,2.55
2019-06-27T20:44:00.988Z,1.90
2019-06-27T20:46:33.227Z,1.82
2019-06-27T20:49:05.122Z,2.02
2019-06-27T20:51:36.584Z,2.27
2019-06-27T20:54:11.981Z,2.42
2019-06-27T20:56:41.615Z,1.50
2019-06-27T20:59:13.138Z,2.60
2019-06-27T21:01:44.536Z,2.02
2019-06-27T21:04:16.008Z,2.47
2019-06-27T21:06:47.639Z,2.70
2019-06-27T21:09:19.230Z,1.60
2019-06-27T21:11:52.131Z,3.47
2019-06-27T21:14:24.039Z,2.47
2019-06-27T21:16:55.645Z,3.08
2019-06-27T21:19:27.438Z,4.12
2019-06-27T21:21:59.101Z,3.83
2019-06-27T21:24:30.637Z,5.35
2019-06-27T21:27:02.979Z,2.33
2019-06-27T21:29:34.477Z,11.23
2019-06-27T21:32:06.028Z,3.90
2019-06-27T21:34:37.494Z,7.23
2019-06-27T21:37:08.972Z,4.90
2019-06-27T21:39:40.956Z,4.20
2019-06-27T21:42:12.479Z,3.93
2019-06-27T21:44:44.136Z,5.60
2019-06-27T21:47:15.539Z,5.40
2019-06-27T21:49:46.949Z,3.47
2019-06-27T21:52:18.439Z,4.43
2019-06-27T21:54:49.760Z,2.57
2019-06-27T21:57:21.231Z,2.40
2019-06-27T21:59:52.545Z,3.63
2019-06-27T22:02:24.036Z,4.00
2019-06-27T22:04:55.563Z,3.07
2019-06-27T22:07:27.093Z,3.07
2019-06-27T22:09:58.755Z,4.13
2019-06-27T22:12:34.596Z,2.20
2019-06-27T22:15:07.373Z,2.53
2019-06-27T22:17:38.973Z,2.53
2019-06-27T22:20:15.700Z,3.80
2019-06-27T22:22:44.666Z,2.23
2019-06-27T22:25:16.511Z,2.70
2019-06-27T22:27:48.023Z,2.70
2019-06-27T22:30:21.382Z,4.37
2019-06-27T22:32:52.887Z,2.63
2019-06-27T22:35:24.340Z,5.13
2019-06-27T22:38:13.371Z,3.10
2019-06-27T22:41:02.649Z,3.00
2019-06-27T22:43:51.710Z,5.63
2019-06-27T22:46:40.704Z,2.70
2019-06-27T22:49:15.173Z,4.27
2019-06-27T22:52:11.456Z,2.70
2019-06-27T22:54:44.465Z,5.33
2019-06-27T22:57:15.830Z,3.70
2019-06-27T22:59:47.282Z,3.47
2019-06-27T23:02:18.751Z,3.27
2019-06-27T23:04:50.490Z,2.60
2019-06-27T23:07:22.205Z,2.60
2019-06-27T23:09:57.238Z,2.67
2019-06-27T23:12:27.834Z,3.27
2019-06-27T23:14:59.157Z,3.90
2019-06-27T23:17:30.624Z,2.83
2019-06-27T23:20:02.147Z,3.50
2019-06-27T23:22:33.550Z,3.27
2019-06-27T23:25:05.060Z,6.80
2019-06-27T23:27:36.369Z,3.40
2019-06-27T23:30:08.071Z,2.40
2019-06-27T23:32:39.465Z,3.50
2019-06-27T23:35:11.044Z,3.00
2019-06-27T23:37:42.285Z,2.47
2019-06-27T23:40:15.135Z,2.53
2019-06-27T23:42:46.985Z,3.90
2019-06-27T23:45:18.943Z,4.50
2019-06-27T23:47:50.468Z,2.80
2019-06-27T23:50:22.286Z,2.27
2019-06-27T23:52:54.104Z,3.37
2019-06-27T23:55:25.612Z,2.93
2019-06-27T23:57:57.009Z,3.77
